sensor_id;sensor_type;location;lat;lon;timestamp;P1;durP1;ratioP1;P2;durP2;ratioP2
19525;SDS011;9907;42.676;26.348;2022-11-15T00:00:50;25.33;;;18.80;;
19525;SDS011;9907;42.676;26.348;2022-11-15T00:03:16;24.50;;;17.13;;
19525;SDS011;9907;42.676;26.348;2022-11-15T00:05:44;25.63;;;18.57;;
19525;SDS011;9907;42.676;26.348;2022-11-15T00:08:10;23.27;;;17.20;;
19525;SDS011;9907;42.676;26.348;2022-11-15T00:10:36;25.53;;;17.97;;
19525;SDS011;9907;42.676;26.348;2022-11-15T00:13:09;26.33;;;17.97;;
19525;SDS011;9907;42.676;26.348;2022-11-15T00:15:37;23.30;;;16.63;;
19525;SDS011;9907;42.676;26.348;2022-11-15T00:18:03;23.73;;;17.67;;
19525;SDS011;9907;42.676;26.348;2022-11-15T00:20:30;25.47;;;18.30;;
19525;SDS011;9907;42.676;26.348;2022-11-15T00:22:55;24.23;;;16.73;;
19525;SDS011;9907;42.676;26.348;2022-11-15T00:25:21;24.37;;;16.63;;
19525;SDS011;9907;42.676;26.348;2022-11-15T00:27:46;24.33;;;16.13;;
19525;SDS011;9907;42.676;26.348;2022-11-15T00:30:12;24.70;;;17.37;;
19525;SDS011;9907;42.676;26.348;2022-11-15T00:32:37;27.67;;;18.13;;
19525;SDS011;9907;42.676;26.348;2022-11-15T00:35:03;24.67;;;17.37;;
19525;SDS011;9907;42.676;26.348;2022-11-15T00:37:28;23.27;;;17.03;;
19525;SDS011;9907;42.676;26.348;2022-11-15T00:39:54;25.60;;;17.37;;
19525;SDS011;9907;42.676;26.348;2022-11-15T00:42:19;23.83;;;16.57;;
19525;SDS011;9907;42.676;26.348;2022-11-15T00:44:45;24.40;;;17.37;;
19525;SDS011;9907;42.676;26.348;2022-11-15T00:47:10;23.83;;;17.50;;
19525;SDS011;9907;42.676;26.348;2022-11-15T00:49:36;28.73;;;18.63;;
19525;SDS011;9907;42.676;26.348;2022-11-15T00:52:01;24.40;;;17.50;;
19525;SDS011;9907;42.676;26.348;2022-11-15T00:54:27;23.97;;;18.20;;
19525;SDS011;9907;42.676;26.348;2022-11-15T00:56:52;26.23;;;18.43;;
19525;SDS011;9907;42.676;26.348;2022-11-15T00:59:18;26.03;;;18.03;;
19525;SDS011;9907;42.676;26.348;2022-11-15T01:01:43;26.20;;;17.90;;
19525;SDS011;9907;42.676;26.348;2022-11-15T01:04:08;25.83;;;18.07;;
19525;SDS011;9907;42.676;26.348;2022-11-15T01:06:34;26.50;;;19.17;;
19525;SDS011;9907;42.676;26.348;2022-11-15T01:08:59;29.77;;;18.53;;
19525;SDS011;9907;42.676;26.348;2022-11-15T01:11:25;25.40;;;18.80;;
19525;SDS011;9907;42.676;26.348;2022-11-15T01:13:50;28.77;;;19.10;;
19525;SDS011;9907;42.676;26.348;2022-11-15T01:16:16;24.40;;;18.63;;
19525;SDS011;9907;42.676;26.348;2022-11-15T01:18:43;26.73;;;18.17;;
19525;SDS011;9907;42.676;26.348;2022-11-15T01:21:10;25.50;;;18.10;;
19525;SDS011;9907;42.676;26.348;2022-11-15T01:23:40;26.27;;;18.13;;
19525;SDS011;9907;42.676;26.348;2022-11-15T01:26:08;25.90;;;19.07;;
19525;SDS011;9907;42.676;26.348;2022-11-15T01:28:37;23.53;;;17.40;;
19525;SDS011;9907;42.676;26.348;2022-11-15T01:31:04;23.10;;;17.23;;
19525;SDS011;9907;42.676;26.348;2022-11-15T01:33:34;24.73;;;17.13;;
19525;SDS011;9907;42.676;26.348;2022-11-15T01:36:07;23.77;;;17.40;;
19525;SDS011;9907;42.676;26.348;2022-11-15T01:38:35;23.17;;;16.53;;
19525;SDS011;9907;42.676;26.348;2022-11-15T01:41:00;21.90;;;17.37;;
19525;SDS011;9907;42.676;26.348;2022-11-15T01:43:27;26.10;;;17.10;;
19525;SDS011;9907;42.676;26.348;2022-11-15T01:49:13;25.57;;;17.93;;
19525;SDS011;9907;42.676;26.348;2022-11-15T01:51:42;24.83;;;16.80;;
19525;SDS011;9907;42.676;26.348;2022-11-15T01:54:08;25.97;;;17.60;;
19525;SDS011;9907;42.676;26.348;2022-11-15T01:56:39;27.20;;;18.40;;
19525;SDS011;9907;42.676;26.348;2022-11-15T01:59:10;27.60;;;18.23;;
19525;SDS011;9907;42.676;26.348;2022-11-15T02:01:36;23.57;;;16.93;;
19525;SDS011;9907;42.676;26.348;2022-11-15T02:04:13;23.47;;;18.17;;
19525;SDS011;9907;42.676;26.348;2022-11-15T02:06:42;24.23;;;17.07;;
19525;SDS011;9907;42.676;26.348;2022-11-15T02:09:09;23.67;;;17.40;;
19525;SDS011;9907;42.676;26.348;2022-11-15T02:11:35;25.17;;;17.10;;
19525;SDS011;9907;42.676;26.348;2022-11-15T02:14:01;22.77;;;16.53;;
19525;SDS011;9907;42.676;26.348;2022-11-15T02:30:50;23.17;;;16.60;;
19525;SDS011;9907;42.676;26.348;2022-11-15T02:36:08;23.47;;;16.57;;
19525;SDS011;9907;42.676;26.348;2022-11-15T02:41:15;23.27;;;16.67;;
19525;SDS011;9907;42.676;26.348;2022-11-15T02:43:53;26.77;;;16.47;;
19525;SDS011;9907;42.676;26.348;2022-11-15T02:49:20;23.57;;;16.93;;
19525;SDS011;9907;42.676;26.348;2022-11-15T02:51:47;22.87;;;16.80;;
19525;SDS011;9907;42.676;26.348;2022-11-15T02:54:15;23.73;;;16.63;;
19525;SDS011;9907;42.676;26.348;2022-11-15T02:56:47;25.87;;;17.67;;
19525;SDS011;9907;42.676;26.348;2022-11-15T03:10:12;25.40;;;17.50;;
19525;SDS011;9907;42.676;26.348;2022-11-15T03:12:51;24.37;;;17.00;;
19525;SDS011;9907;42.676;26.348;2022-11-15T03:15:23;27.13;;;19.30;;
19525;SDS011;9907;42.676;26.348;2022-11-15T03:17:59;26.13;;;19.00;;
19525;SDS011;9907;42.676;26.348;2022-11-15T03:20:29;26.17;;;18.10;;
19525;SDS011;9907;42.676;26.348;2022-11-15T03:23:00;27.27;;;18.63;;
19525;SDS011;9907;42.676;26.348;2022-11-15T03:25:29;25.40;;;18.70;;
19525;SDS011;9907;42.676;26.348;2022-11-15T03:27:59;28.87;;;19.30;;
19525;SDS011;9907;42.676;26.348;2022-11-15T03:30:30;25.70;;;19.17;;
19525;SDS011;9907;42.676;26.348;2022-11-15T03:33:00;29.77;;;19.27;;
19525;SDS011;9907;42.676;26.348;2022-11-15T03:35:30;29.57;;;19.53;;
19525;SDS011;9907;42.676;26.348;2022-11-15T03:40:54;26.63;;;19.57;;
19525;SDS011;9907;42.676;26.348;2022-11-15T03:46:19;29.37;;;20.27;;
19525;SDS011;9907;42.676;26.348;2022-11-15T03:48:49;29.43;;;20.10;;
19525;SDS011;9907;42.676;26.348;2022-11-15T03:51:18;30.33;;;20.50;;
19525;SDS011;9907;42.676;26.348;2022-11-15T03:53:45;30.23;;;19.83;;
19525;SDS011;9907;42.676;26.348;2022-11-15T03:56:11;28.23;;;19.73;;
19525;SDS011;9907;42.676;26.348;2022-11-15T03:58:36;27.43;;;19.83;;
19525;SDS011;9907;42.676;26.348;2022-11-15T04:01:01;29.90;;;20.07;;
19525;SDS011;9907;42.676;26.348;2022-11-15T04:03:27;30.63;;;19.80;;
19525;SDS011;9907;42.676;26.348;2022-11-15T04:05:52;30.43;;;19.57;;
19525;SDS011;9907;42.676;26.348;2022-11-15T04:08:18;29.10;;;20.33;;
19525;SDS011;9907;42.676;26.348;2022-11-15T04:10:43;34.53;;;21.70;;
19525;SDS011;9907;42.676;26.348;2022-11-15T04:13:09;29.20;;;20.03;;
19525;SDS011;9907;42.676;26.348;2022-11-15T04:15:34;30.67;;;20.10;;
19525;SDS011;9907;42.676;26.348;2022-11-15T04:18:00;28.63;;;19.97;;
19525;SDS011;9907;42.676;26.348;2022-11-15T04:20:26;32.37;;;19.57;;
19525;SDS011;9907;42.676;26.348;2022-11-15T04:26:07;31.87;;;19.83;;
19525;SDS011;9907;42.676;26.348;2022-11-15T04:28:35;27.83;;;19.63;;
19525;SDS011;9907;42.676;26.348;2022-11-15T04:31:21;30.57;;;19.07;;
19525;SDS011;9907;42.676;26.348;2022-11-15T04:33:46;28.27;;;20.10;;
19525;SDS011;9907;42.676;26.348;2022-11-15T04:36:12;32.23;;;20.40;;
19525;SDS011;9907;42.676;26.348;2022-11-15T04:38:56;33.27;;;20.83;;
19525;SDS011;9907;42.676;26.348;2022-11-15T04:41:21;29.53;;;19.37;;
19525;SDS011;9907;42.676;26.348;2022-11-15T04:43:47;35.07;;;20.33;;
19525;SDS011;9907;42.676;26.348;2022-11-15T04:46:12;34.00;;;20.40;;
19525;SDS011;9907;42.676;26.348;2022-11-15T04:48:38;30.80;;;19.50;;
19525;SDS011;9907;42.676;26.348;2022-11-15T04:51:03;31.77;;;20.77;;
19525;SDS011;9907;42.676;26.348;2022-11-15T04:53:29;30.67;;;19.17;;
19525;SDS011;9907;42.676;26.348;2022-11-15T04:55:54;29.97;;;19.43;;
19525;SDS011;9907;42.676;26.348;2022-11-15T04:58:20;32.40;;;19.50;;
19525;SDS011;9907;42.676;26.348;2022-11-15T05:00:45;30.77;;;19.40;;
19525;SDS011;9907;42.676;26.348;2022-11-15T05:03:11;29.77;;;19.87;;
19525;SDS011;9907;42.676;26.348;2022-11-15T05:05:54;33.27;;;21.93;;
19525;SDS011;9907;42.676;26.348;2022-11-15T05:08:20;39.10;;;21.57;;
19525;SDS011;9907;42.676;26.348;2022-11-15T05:10:45;30.70;;;19.93;;
19525;SDS011;9907;42.676;26.348;2022-11-15T05:13:12;32.80;;;20.03;;
19525;SDS011;9907;42.676;26.348;2022-11-15T05:15:38;30.73;;;20.43;;
19525;SDS011;9907;42.676;26.348;2022-11-15T05:18:03;35.43;;;21.73;;
19525;SDS011;9907;42.676;26.348;2022-11-15T05:20:29;34.70;;;20.63;;
19525;SDS011;9907;42.676;26.348;2022-11-15T05:22:54;31.13;;;20.67;;
19525;SDS011;9907;42.676;26.348;2022-11-15T05:25:22;31.30;;;19.00;;
19525;SDS011;9907;42.676;26.348;2022-11-15T05:27:48;30.30;;;19.40;;
19525;SDS011;9907;42.676;26.348;2022-11-15T05:30:14;30.27;;;20.27;;
19525;SDS011;9907;42.676;26.348;2022-11-15T05:32:41;28.90;;;19.27;;
19525;SDS011;9907;42.676;26.348;2022-11-15T05:35:06;24.63;;;17.27;;
19525;SDS011;9907;42.676;26.348;2022-11-15T05:37:37;28.13;;;17.57;;
19525;SDS011;9907;42.676;26.348;2022-11-15T05:40:03;23.60;;;15.83;;
19525;SDS011;9907;42.676;26.348;2022-11-15T05:42:28;25.83;;;17.20;;
19525;SDS011;9907;42.676;26.348;2022-11-15T05:44:55;24.10;;;16.00;;
19525;SDS011;9907;42.676;26.348;2022-11-15T05:47:23;24.80;;;16.33;;
19525;SDS011;9907;42.676;26.348;2022-11-15T05:49:51;24.40;;;17.67;;
19525;SDS011;9907;42.676;26.348;2022-11-15T05:52:19;28.20;;;18.07;;
19525;SDS011;9907;42.676;26.348;2022-11-15T05:54:48;27.17;;;17.00;;
19525;SDS011;9907;42.676;26.348;2022-11-15T05:57:15;25.80;;;17.37;;
19525;SDS011;9907;42.676;26.348;2022-11-15T05:59:40;26.67;;;17.70;;
19525;SDS011;9907;42.676;26.348;2022-11-15T06:02:08;29.23;;;18.77;;
19525;SDS011;9907;42.676;26.348;2022-11-15T06:04:34;29.80;;;18.73;;
19525;SDS011;9907;42.676;26.348;2022-11-15T06:07:00;28.53;;;18.87;;
19525;SDS011;9907;42.676;26.348;2022-11-15T06:09:25;27.30;;;17.90;;
19525;SDS011;9907;42.676;26.348;2022-11-15T06:11:51;30.07;;;18.13;;
19525;SDS011;9907;42.676;26.348;2022-11-15T06:14:16;29.53;;;18.57;;
19525;SDS011;9907;42.676;26.348;2022-11-15T06:16:42;33.10;;;19.77;;
19525;SDS011;9907;42.676;26.348;2022-11-15T06:19:07;30.43;;;19.63;;
19525;SDS011;9907;42.676;26.348;2022-11-15T06:21:33;30.73;;;19.53;;
19525;SDS011;9907;42.676;26.348;2022-11-15T06:23:58;31.93;;;20.20;;
19525;SDS011;9907;42.676;26.348;2022-11-15T06:26:23;30.37;;;18.53;;
19525;SDS011;9907;42.676;26.348;2022-11-15T06:28:49;33.27;;;20.53;;
19525;SDS011;9907;42.676;26.348;2022-11-15T06:31:15;35.10;;;21.40;;
19525;SDS011;9907;42.676;26.348;2022-11-15T06:33:40;31.70;;;20.07;;
19525;SDS011;9907;42.676;26.348;2022-11-15T06:36:07;32.23;;;21.00;;
19525;SDS011;9907;42.676;26.348;2022-11-15T06:38:34;30.50;;;19.70;;
19525;SDS011;9907;42.676;26.348;2022-11-15T06:41:01;33.03;;;20.80;;
19525;SDS011;9907;42.676;26.348;2022-11-15T06:43:28;28.10;;;19.30;;
19525;SDS011;9907;42.676;26.348;2022-11-15T06:45:53;29.67;;;18.87;;
19525;SDS011;9907;42.676;26.348;2022-11-15T06:48:18;30.57;;;19.83;;
19525;SDS011;9907;42.676;26.348;2022-11-15T06:50:49;34.53;;;20.80;;
19525;SDS011;9907;42.676;26.348;2022-11-15T06:53:16;31.43;;;19.33;;
19525;SDS011;9907;42.676;26.348;2022-11-15T06:55:42;35.37;;;20.60;;
19525;SDS011;9907;42.676;26.348;2022-11-15T06:58:07;37.80;;;19.83;;
19525;SDS011;9907;42.676;26.348;2022-11-15T07:00:33;31.97;;;19.00;;
19525;SDS011;9907;42.676;26.348;2022-11-15T07:03:01;31.63;;;19.97;;
19525;SDS011;9907;42.676;26.348;2022-11-15T07:05:27;31.13;;;19.53;;
19525;SDS011;9907;42.676;26.348;2022-11-15T07:07:53;31.80;;;18.53;;
19525;SDS011;9907;42.676;26.348;2022-11-15T07:10:20;31.93;;;19.03;;
19525;SDS011;9907;42.676;26.348;2022-11-15T07:12:47;31.73;;;18.80;;
19525;SDS011;9907;42.676;26.348;2022-11-15T07:15:14;28.37;;;19.93;;
19525;SDS011;9907;42.676;26.348;2022-11-15T07:17:40;28.93;;;18.77;;
19525;SDS011;9907;42.676;26.348;2022-11-15T07:20:06;31.10;;;19.00;;
19525;SDS011;9907;42.676;26.348;2022-11-15T07:22:32;32.80;;;19.93;;
19525;SDS011;9907;42.676;26.348;2022-11-15T07:24:57;30.00;;;19.60;;
19525;SDS011;9907;42.676;26.348;2022-11-15T07:27:23;33.17;;;19.47;;
19525;SDS011;9907;42.676;26.348;2022-11-15T07:29:48;30.80;;;18.83;;
19525;SDS011;9907;42.676;26.348;2022-11-15T07:32:14;28.40;;;20.10;;
19525;SDS011;9907;42.676;26.348;2022-11-15T07:34:39;31.30;;;20.07;;
19525;SDS011;9907;42.676;26.348;2022-11-15T07:37:05;30.33;;;19.73;;
19525;SDS011;9907;42.676;26.348;2022-11-15T07:39:30;30.07;;;18.83;;
19525;SDS011;9907;42.676;26.348;2022-11-15T07:41:55;35.30;;;20.40;;
19525;SDS011;9907;42.676;26.348;2022-11-15T07:44:41;33.37;;;21.57;;
19525;SDS011;9907;42.676;26.348;2022-11-15T07:47:06;38.07;;;21.80;;
19525;SDS011;9907;42.676;26.348;2022-11-15T07:49:32;32.90;;;21.43;;
19525;SDS011;9907;42.676;26.348;2022-11-15T07:51:57;32.67;;;21.07;;
19525;SDS011;9907;42.676;26.348;2022-11-15T07:54:23;32.13;;;19.77;;
19525;SDS011;9907;42.676;26.348;2022-11-15T07:56:48;32.77;;;18.90;;
19525;SDS011;9907;42.676;26.348;2022-11-15T07:59:14;28.60;;;18.87;;
19525;SDS011;9907;42.676;26.348;2022-11-15T08:01:39;30.03;;;19.37;;
19525;SDS011;9907;42.676;26.348;2022-11-15T08:04:04;29.40;;;19.00;;
19525;SDS011;9907;42.676;26.348;2022-11-15T08:06:30;30.90;;;19.30;;
19525;SDS011;9907;42.676;26.348;2022-11-15T08:08:55;30.30;;;18.70;;
19525;SDS011;9907;42.676;26.348;2022-11-15T08:11:21;30.77;;;19.40;;
19525;SDS011;9907;42.676;26.348;2022-11-15T08:13:46;33.83;;;20.40;;
19525;SDS011;9907;42.676;26.348;2022-11-15T08:16:12;31.33;;;21.50;;
19525;SDS011;9907;42.676;26.348;2022-11-15T08:18:37;34.30;;;22.57;;
19525;SDS011;9907;42.676;26.348;2022-11-15T08:21:03;30.53;;;20.67;;
19525;SDS011;9907;42.676;26.348;2022-11-15T08:23:29;31.53;;;19.83;;
19525;SDS011;9907;42.676;26.348;2022-11-15T08:26:04;29.83;;;18.73;;
19525;SDS011;9907;42.676;26.348;2022-11-15T08:28:30;30.03;;;20.30;;
19525;SDS011;9907;42.676;26.348;2022-11-15T08:30:56;28.87;;;18.67;;
19525;SDS011;9907;42.676;26.348;2022-11-15T08:33:22;29.23;;;19.20;;
19525;SDS011;9907;42.676;26.348;2022-11-15T08:35:47;28.03;;;19.00;;
19525;SDS011;9907;42.676;26.348;2022-11-15T08:38:13;29.97;;;19.10;;
19525;SDS011;9907;42.676;26.348;2022-11-15T08:40:39;27.70;;;17.97;;
19525;SDS011;9907;42.676;26.348;2022-11-15T08:43:04;28.37;;;19.07;;
19525;SDS011;9907;42.676;26.348;2022-11-15T08:45:30;28.00;;;19.00;;
19525;SDS011;9907;42.676;26.348;2022-11-15T08:47:56;32.37;;;19.47;;
19525;SDS011;9907;42.676;26.348;2022-11-15T08:50:21;30.73;;;20.30;;
19525;SDS011;9907;42.676;26.348;2022-11-15T08:52:47;30.50;;;19.47;;
19525;SDS011;9907;42.676;26.348;2022-11-15T08:55:15;27.90;;;18.27;;
19525;SDS011;9907;42.676;26.348;2022-11-15T08:57:41;28.70;;;18.97;;
19525;SDS011;9907;42.676;26.348;2022-11-15T09:00:06;27.83;;;17.30;;
19525;SDS011;9907;42.676;26.348;2022-11-15T09:02:32;28.10;;;18.33;;
19525;SDS011;9907;42.676;26.348;2022-11-15T09:04:58;28.53;;;18.30;;
19525;SDS011;9907;42.676;26.348;2022-11-15T09:07:23;34.90;;;19.30;;
19525;SDS011;9907;42.676;26.348;2022-11-15T09:09:49;40.53;;;19.13;;
19525;SDS011;9907;42.676;26.348;2022-11-15T09:12:14;27.90;;;19.53;;
19525;SDS011;9907;42.676;26.348;2022-11-15T09:14:39;27.83;;;18.97;;
19525;SDS011;9907;42.676;26.348;2022-11-15T09:17:08;29.53;;;18.63;;
19525;SDS011;9907;42.676;26.348;2022-11-15T09:19:34;33.43;;;21.50;;
19525;SDS011;9907;42.676;26.348;2022-11-15T09:21:59;31.50;;;21.07;;
19525;SDS011;9907;42.676;26.348;2022-11-15T09:24:25;29.57;;;18.63;;
19525;SDS011;9907;42.676;26.348;2022-11-15T09:26:51;27.50;;;18.23;;
19525;SDS011;9907;42.676;26.348;2022-11-15T09:29:17;31.57;;;19.40;;
19525;SDS011;9907;42.676;26.348;2022-11-15T09:31:43;31.27;;;20.33;;
19525;SDS011;9907;42.676;26.348;2022-11-15T09:34:08;30.67;;;19.93;;
19525;SDS011;9907;42.676;26.348;2022-11-15T09:36:34;31.70;;;20.47;;
19525;SDS011;9907;42.676;26.348;2022-11-15T09:39:00;34.47;;;21.23;;
19525;SDS011;9907;42.676;26.348;2022-11-15T09:41:29;28.13;;;20.03;;
19525;SDS011;9907;42.676;26.348;2022-11-15T09:44:23;31.80;;;19.43;;
19525;SDS011;9907;42.676;26.348;2022-11-15T09:50:11;33.53;;;19.90;;
19525;SDS011;9907;42.676;26.348;2022-11-15T09:52:39;31.43;;;18.97;;
19525;SDS011;9907;42.676;26.348;2022-11-15T09:55:09;30.00;;;20.77;;
19525;SDS011;9907;42.676;26.348;2022-11-15T10:00:31;31.93;;;20.57;;
19525;SDS011;9907;42.676;26.348;2022-11-15T10:05:44;33.77;;;21.27;;
19525;SDS011;9907;42.676;26.348;2022-11-15T10:10:43;32.90;;;22.00;;
19525;SDS011;9907;42.676;26.348;2022-11-15T10:13:24;31.47;;;22.37;;
19525;SDS011;9907;42.676;26.348;2022-11-15T10:15:54;33.33;;;23.23;;
19525;SDS011;9907;42.676;26.348;2022-11-15T10:18:37;31.53;;;22.10;;
19525;SDS011;9907;42.676;26.348;2022-11-15T10:21:26;31.60;;;21.70;;
19525;SDS011;9907;42.676;26.348;2022-11-15T10:24:07;30.33;;;21.03;;
19525;SDS011;9907;42.676;26.348;2022-11-15T10:26:36;31.30;;;21.97;;
19525;SDS011;9907;42.676;26.348;2022-11-15T10:29:02;33.80;;;21.83;;
19525;SDS011;9907;42.676;26.348;2022-11-15T10:31:28;32.30;;;21.20;;
19525;SDS011;9907;42.676;26.348;2022-11-15T10:34:09;34.83;;;22.67;;
19525;SDS011;9907;42.676;26.348;2022-11-15T10:36:43;34.70;;;23.10;;
19525;SDS011;9907;42.676;26.348;2022-11-15T10:39:11;34.60;;;22.50;;
19525;SDS011;9907;42.676;26.348;2022-11-15T10:41:39;36.00;;;23.60;;
19525;SDS011;9907;42.676;26.348;2022-11-15T10:46:32;33.03;;;23.37;;
19525;SDS011;9907;42.676;26.348;2022-11-15T10:52:18;36.17;;;23.73;;
19525;SDS011;9907;42.676;26.348;2022-11-15T10:54:59;35.17;;;23.53;;
19525;SDS011;9907;42.676;26.348;2022-11-15T10:57:29;34.80;;;24.00;;
19525;SDS011;9907;42.676;26.348;2022-11-15T10:59:59;36.47;;;24.67;;
19525;SDS011;9907;42.676;26.348;2022-11-15T11:02:38;34.07;;;22.70;;
19525;SDS011;9907;42.676;26.348;2022-11-15T11:05:25;35.73;;;23.90;;
19525;SDS011;9907;42.676;26.348;2022-11-15T11:07:57;35.23;;;23.50;;
19525;SDS011;9907;42.676;26.348;2022-11-15T11:10:53;35.93;;;23.40;;
19525;SDS011;9907;42.676;26.348;2022-11-15T11:13:24;31.10;;;21.73;;
19525;SDS011;9907;42.676;26.348;2022-11-15T11:19:15;30.10;;;21.30;;
19525;SDS011;9907;42.676;26.348;2022-11-15T11:22:11;30.13;;;22.47;;
19525;SDS011;9907;42.676;26.348;2022-11-15T11:25:03;30.70;;;22.73;;
19525;SDS011;9907;42.676;26.348;2022-11-15T11:30:11;34.80;;;21.30;;
19525;SDS011;9907;42.676;26.348;2022-11-15T11:44:06;28.03;;;21.40;;
19525;SDS011;9907;42.676;26.348;2022-11-15T11:51:54;31.77;;;23.23;;
19525;SDS011;9907;42.676;26.348;2022-11-15T11:54:46;30.97;;;22.97;;
19525;SDS011;9907;42.676;26.348;2022-11-15T12:00:12;29.43;;;20.90;;
19525;SDS011;9907;42.676;26.348;2022-11-15T12:03:27;29.87;;;21.83;;
19525;SDS011;9907;42.676;26.348;2022-11-15T12:05:45;30.10;;;22.13;;
19525;SDS011;9907;42.676;26.348;2022-11-15T12:10:50;30.30;;;21.80;;
19525;SDS011;9907;42.676;26.348;2022-11-15T12:13:21;32.03;;;22.60;;
19525;SDS011;9907;42.676;26.348;2022-11-15T12:15:53;34.13;;;22.73;;
19525;SDS011;9907;42.676;26.348;2022-11-15T12:18:26;32.07;;;22.90;;
19525;SDS011;9907;42.676;26.348;2022-11-15T12:20:56;32.27;;;22.73;;
19525;SDS011;9907;42.676;26.348;2022-11-15T12:23:30;36.43;;;25.43;;
19525;SDS011;9907;42.676;26.348;2022-11-15T12:26:15;36.53;;;24.83;;
19525;SDS011;9907;42.676;26.348;2022-11-15T12:28:49;33.00;;;23.33;;
19525;SDS011;9907;42.676;26.348;2022-11-15T12:34:00;33.07;;;23.60;;
19525;SDS011;9907;42.676;26.348;2022-11-15T12:36:35;30.90;;;23.17;;
19525;SDS011;9907;42.676;26.348;2022-11-15T12:39:08;33.20;;;25.30;;
19525;SDS011;9907;42.676;26.348;2022-11-15T12:41:36;29.80;;;23.33;;
19525;SDS011;9907;42.676;26.348;2022-11-15T12:44:13;33.87;;;23.97;;
19525;SDS011;9907;42.676;26.348;2022-11-15T12:47:03;33.47;;;23.73;;
19525;SDS011;9907;42.676;26.348;2022-11-15T12:49:47;31.13;;;22.67;;
19525;SDS011;9907;42.676;26.348;2022-11-15T12:52:13;30.40;;;20.87;;
19525;SDS011;9907;42.676;26.348;2022-11-15T13:17:42;25.47;;;18.67;;
19525;SDS011;9907;42.676;26.348;2022-11-15T13:35:50;29.33;;;21.13;;
19525;SDS011;9907;42.676;26.348;2022-11-15T13:38:25;26.30;;;19.03;;
19525;SDS011;9907;42.676;26.348;2022-11-15T13:40:55;24.63;;;19.20;;
19525;SDS011;9907;42.676;26.348;2022-11-15T13:48:43;25.10;;;18.87;;
19525;SDS011;9907;42.676;26.348;2022-11-15T13:53:35;26.63;;;19.93;;
19525;SDS011;9907;42.676;26.348;2022-11-15T13:56:04;25.67;;;19.57;;
19525;SDS011;9907;42.676;26.348;2022-11-15T13:58:31;23.37;;;19.43;;
19525;SDS011;9907;42.676;26.348;2022-11-15T14:01:02;24.03;;;19.53;;
19525;SDS011;9907;42.676;26.348;2022-11-15T14:03:30;24.03;;;18.80;;
19525;SDS011;9907;42.676;26.348;2022-11-15T14:09:03;25.13;;;19.90;;
19525;SDS011;9907;42.676;26.348;2022-11-15T14:11:28;26.03;;;20.37;;
19525;SDS011;9907;42.676;26.348;2022-11-15T14:19:11;26.67;;;20.03;;
19525;SDS011;9907;42.676;26.348;2022-11-15T14:24:43;27.10;;;19.07;;
19525;SDS011;9907;42.676;26.348;2022-11-15T14:27:17;26.93;;;19.80;;
19525;SDS011;9907;42.676;26.348;2022-11-15T14:29:43;25.43;;;20.00;;
19525;SDS011;9907;42.676;26.348;2022-11-15T14:32:21;25.27;;;19.00;;
19525;SDS011;9907;42.676;26.348;2022-11-15T14:34:56;32.00;;;23.60;;
19525;SDS011;9907;42.676;26.348;2022-11-15T14:37:26;25.00;;;19.87;;
19525;SDS011;9907;42.676;26.348;2022-11-15T14:39:58;27.40;;;20.23;;
19525;SDS011;9907;42.676;26.348;2022-11-15T14:42:24;28.47;;;19.73;;
19525;SDS011;9907;42.676;26.348;2022-11-15T14:44:50;26.50;;;20.30;;
19525;SDS011;9907;42.676;26.348;2022-11-15T14:47:16;28.47;;;19.30;;
19525;SDS011;9907;42.676;26.348;2022-11-15T14:49:42;25.83;;;20.00;;
19525;SDS011;9907;42.676;26.348;2022-11-15T14:52:27;27.87;;;20.33;;
19525;SDS011;9907;42.676;26.348;2022-11-15T14:54:55;26.10;;;20.60;;
19525;SDS011;9907;42.676;26.348;2022-11-15T14:57:22;27.87;;;20.47;;
19525;SDS011;9907;42.676;26.348;2022-11-15T14:59:48;27.27;;;20.97;;
19525;SDS011;9907;42.676;26.348;2022-11-15T15:02:21;25.13;;;19.70;;
19525;SDS011;9907;42.676;26.348;2022-11-15T15:04:50;29.63;;;20.80;;
19525;SDS011;9907;42.676;26.348;2022-11-15T15:07:16;27.27;;;20.50;;
19525;SDS011;9907;42.676;26.348;2022-11-15T15:09:43;32.63;;;22.33;;
19525;SDS011;9907;42.676;26.348;2022-11-15T15:12:14;31.10;;;23.13;;
19525;SDS011;9907;42.676;26.348;2022-11-15T15:14:42;30.20;;;21.13;;
19525;SDS011;9907;42.676;26.348;2022-11-15T15:17:07;29.93;;;21.73;;
19525;SDS011;9907;42.676;26.348;2022-11-15T15:19:33;30.20;;;21.90;;
19525;SDS011;9907;42.676;26.348;2022-11-15T15:21:58;31.90;;;22.13;;
19525;SDS011;9907;42.676;26.348;2022-11-15T15:24:24;29.23;;;22.20;;
19525;SDS011;9907;42.676;26.348;2022-11-15T15:26:49;30.93;;;23.10;;
19525;SDS011;9907;42.676;26.348;2022-11-15T15:29:14;30.33;;;22.63;;
19525;SDS011;9907;42.676;26.348;2022-11-15T15:31:40;31.63;;;21.87;;
19525;SDS011;9907;42.676;26.348;2022-11-15T15:34:06;31.37;;;22.13;;
19525;SDS011;9907;42.676;26.348;2022-11-15T15:36:31;29.73;;;21.00;;
19525;SDS011;9907;42.676;26.348;2022-11-15T15:38:56;35.87;;;22.47;;
19525;SDS011;9907;42.676;26.348;2022-11-15T15:41:22;28.63;;;21.73;;
19525;SDS011;9907;42.676;26.348;2022-11-15T15:43:48;30.00;;;22.13;;
19525;SDS011;9907;42.676;26.348;2022-11-15T15:46:14;26.97;;;20.77;;
19525;SDS011;9907;42.676;26.348;2022-11-15T15:48:41;29.97;;;22.63;;
19525;SDS011;9907;42.676;26.348;2022-11-15T15:51:06;29.50;;;21.27;;
19525;SDS011;9907;42.676;26.348;2022-11-15T15:53:32;30.37;;;21.97;;
19525;SDS011;9907;42.676;26.348;2022-11-15T15:55:58;29.40;;;21.90;;
19525;SDS011;9907;42.676;26.348;2022-11-15T15:58:24;30.17;;;21.70;;
19525;SDS011;9907;42.676;26.348;2022-11-15T16:00:49;29.60;;;21.53;;
19525;SDS011;9907;42.676;26.348;2022-11-15T16:03:15;28.97;;;21.40;;
19525;SDS011;9907;42.676;26.348;2022-11-15T16:05:40;30.63;;;21.03;;
19525;SDS011;9907;42.676;26.348;2022-11-15T16:08:09;28.10;;;21.67;;
19525;SDS011;9907;42.676;26.348;2022-11-15T16:10:42;23.93;;;19.77;;
19525;SDS011;9907;42.676;26.348;2022-11-15T16:13:07;27.07;;;20.87;;
19525;SDS011;9907;42.676;26.348;2022-11-15T16:15:33;29.50;;;21.57;;
19525;SDS011;9907;42.676;26.348;2022-11-15T16:18:00;29.37;;;21.90;;
19525;SDS011;9907;42.676;26.348;2022-11-15T16:23:09;28.93;;;22.40;;
19525;SDS011;9907;42.676;26.348;2022-11-15T16:25:44;28.33;;;22.03;;
19525;SDS011;9907;42.676;26.348;2022-11-15T16:28:16;33.40;;;23.83;;
19525;SDS011;9907;42.676;26.348;2022-11-15T16:30:44;39.87;;;29.37;;
19525;SDS011;9907;42.676;26.348;2022-11-15T16:33:09;29.07;;;22.23;;
19525;SDS011;9907;42.676;26.348;2022-11-15T16:35:35;35.23;;;23.37;;
19525;SDS011;9907;42.676;26.348;2022-11-15T16:38:00;29.50;;;22.43;;
19525;SDS011;9907;42.676;26.348;2022-11-15T16:40:33;28.80;;;21.90;;
19525;SDS011;9907;42.676;26.348;2022-11-15T16:43:00;29.17;;;20.93;;
19525;SDS011;9907;42.676;26.348;2022-11-15T16:45:27;29.80;;;20.97;;
19525;SDS011;9907;42.676;26.348;2022-11-15T16:47:53;27.30;;;19.97;;
19525;SDS011;9907;42.676;26.348;2022-11-15T16:50:21;25.27;;;19.70;;
19525;SDS011;9907;42.676;26.348;2022-11-15T16:52:49;24.73;;;18.87;;
19525;SDS011;9907;42.676;26.348;2022-11-15T16:55:16;27.53;;;20.33;;
19525;SDS011;9907;42.676;26.348;2022-11-15T16:57:41;26.13;;;21.13;;
19525;SDS011;9907;42.676;26.348;2022-11-15T17:00:08;26.40;;;19.97;;
19525;SDS011;9907;42.676;26.348;2022-11-15T17:02:35;28.10;;;21.37;;